首页
METAR-TAF:

METAR-TAF

机场 :

雅蒲島國際機場

雅蒲島, 密克罗尼西亚群岛

纬度: 09-29N, 经度: 138-05E, 海拔: 28米

当前天气观测

该预报发布于8分钟前的17:50 UTC
风速3节,风向多变
温度 26°C
湿度 94%
气压 1011 hPa
能見度: 19.3公里
少量云层高于1600英尺
多云层高于30000英尺

METAR: PTYA 231750Z VRB03KT 12SM FEW016 BKN300 26/25 A2984 RMK SLP107 8/101 T02600245 10264 20256 57014

时间: 03:58 (17:58 UTC)

预报

该预报发布于31分钟前的17:27 UTC
预报有效从23日的 18点(UTC)到 24日的 18点(UTC)
风速4节,风向多变
能見度: 10公里
少量云层高于1600英尺
散云层高于4000英尺
散云层高于12000英尺
附近有阵雨
从 24日的 0200点(UTC)
风速8节,风向
能見度: 10公里
少量云层高于1600英尺
散云层高于4000英尺
散云层高于12000英尺
附近有阵雨

TAF: PTYA 231727Z 2318/2418 VRB04KT P6SM VCSH FEW016 SCT040 SCT120 FM240200 08008KT P6SM VCSH FEW016 SCT040 SCT120

超过4000个机场的气象观测和天气预报(METAR&TAF报告)。

可查询的气象台以黄色和红色小点在地图上表示。

将鼠标移到小点上方,可查看气象台名称。

然后点击查看天气观测和预报。

如需切换地图:点击带黑十字的绿色按钮放大地图;点击带横线的绿色按钮缩小地图;或者点击绿色箭头查看邻近地区的地图。


METAR-TAF: